createdAt,value
2022-08-23T00:00:13.019Z,41.9090
2022-08-23T00:00:24.743Z,41.9280
2022-08-23T00:00:37.937Z,41.9370
2022-08-23T00:00:48.969Z,41.8350
2022-08-23T00:01:01.119Z,41.8510
2022-08-23T00:01:13.278Z,41.8680
2022-08-23T00:01:24.442Z,41.8140
2022-08-23T00:01:35.575Z,41.8250
2022-08-23T00:01:46.852Z,41.8020
2022-08-23T00:01:57.976Z,41.8080
2022-08-23T00:02:23.011Z,41.8020
2022-08-23T00:02:26.227Z,42.0000
2022-08-23T00:02:37.788Z,41.9420
2022-08-23T00:02:51.773Z,41.9760
2022-08-23T00:03:04.191Z,41.9620
2022-08-23T00:03:16.616Z,41.9560
2022-08-23T00:03:27.751Z,41.8840
2022-08-23T00:03:39.007Z,41.8570
2022-08-23T00:03:50.196Z,41.8350
2022-08-23T00:04:01.388Z,41.8370
2022-08-23T00:04:12.591Z,41.8200
2022-08-23T00:04:23.726Z,41.8250
2022-08-23T00:04:40.693Z,42.0180
2022-08-23T00:05:08.642Z,42.1310
2022-08-23T00:05:14.791Z,42.1920
2022-08-23T00:05:25.999Z,42.0670
2022-08-23T00:05:37.200Z,41.9700
2022-08-23T00:05:48.281Z,41.9370
2022-08-23T00:05:59.346Z,41.9020
2022-08-23T00:06:10.496Z,41.8900
2022-08-23T00:06:21.561Z,41.9020
2022-08-23T00:06:32.671Z,41.8960
2022-08-23T00:06:43.733Z,41.8840
2022-08-23T00:06:54.971Z,41.8900
2022-08-23T00:07:06.017Z,41.8920
2022-08-23T00:07:17.051Z,41.8680
2022-08-23T00:07:28.234Z,41.8650
2022-08-23T00:07:41.072Z,41.9760
2022-08-23T00:07:52.228Z,41.9230
2022-08-23T00:08:03.423Z,41.9040
2022-08-23T00:08:14.628Z,41.8980
2022-08-23T00:08:25.689Z,41.8950
2022-08-23T00:08:36.795Z,41.8780
2022-08-23T00:08:48.399Z,41.8680
2022-08-23T00:09:00.227Z,41.9090
2022-08-23T00:09:11.462Z,41.8840
2022-08-23T00:09:22.644Z,41.8740
2022-08-23T00:09:33.776Z,41.8560
2022-08-23T00:09:44.848Z,41.8370
2022-08-23T00:09:55.926Z,41.8250
2022-08-23T00:10:09.815Z,41.9400
2022-08-23T00:10:20.963Z,41.8680
2022-08-23T00:10:32.014Z,41.8510
2022-08-23T00:10:43.075Z,41.8450
2022-08-23T00:10:54.135Z,41.8370
2022-08-23T00:11:05.271Z,41.8200
2022-08-23T00:11:16.339Z,41.8200
2022-08-23T00:11:27.442Z,41.8080
2022-08-23T00:11:38.519Z,41.8200
2022-08-23T00:11:49.651Z,41.8250
2022-08-23T00:12:00.892Z,41.8250
2022-08-23T00:12:11.965Z,41.8140
2022-08-23T00:12:23.042Z,41.8250
2022-08-23T00:12:34.198Z,41.8170
2022-08-23T00:12:45.256Z,41.8350
2022-08-23T00:12:56.417Z,41.8450
2022-08-23T00:13:07.540Z,41.8620
2022-08-23T00:13:18.669Z,41.8510
2022-08-23T00:13:48.280Z,41.8350
2022-08-23T00:13:48.282Z,42.0470
2022-08-23T00:13:59.826Z,42.0720
2022-08-23T00:14:10.868Z,41.9310
2022-08-23T00:14:22.161Z,41.9070
2022-08-23T00:14:33.458Z,41.9130
2022-08-23T00:14:46.812Z,42.0200
2022-08-23T00:14:57.894Z,41.9460
2022-08-23T00:15:09.686Z,41.9700
2022-08-23T00:15:20.886Z,41.9500
2022-08-23T00:15:31.958Z,41.9370
2022-08-23T00:15:43.114Z,41.9460
2022-08-23T00:15:54.193Z,41.9350
2022-08-23T00:16:05.274Z,41.9370
2022-08-23T00:16:16.342Z,41.9370
2022-08-23T00:16:27.489Z,41.9340
2022-08-23T00:16:38.573Z,41.9170
2022-08-23T00:16:49.806Z,41.9340
2022-08-23T00:17:00.998Z,41.9560
2022-08-23T00:17:12.203Z,41.9730
2022-08-23T00:17:31.157Z,42.1950
2022-08-23T00:17:46.094Z,42.3070
2022-08-23T00:17:57.322Z,42.1920
2022-08-23T00:18:08.458Z,42.1450
2022-08-23T00:18:19.603Z,42.1340
2022-08-23T00:18:30.673Z,42.1140
2022-08-23T00:18:41.722Z,42.1200
2022-08-23T00:18:59.334Z,42.3130
2022-08-23T00:19:10.563Z,42.2580
2022-08-23T00:19:21.776Z,42.1800
2022-08-23T00:19:32.816Z,42.1510
2022-08-23T00:19:44.014Z,42.1200
2022-08-23T00:19:55.372Z,42.1200
2022-08-23T00:20:06.505Z,42.1390
2022-08-23T00:20:17.557Z,42.1280
2022-08-23T00:20:28.688Z,42.1080
2022-08-23T00:20:39.869Z,42.1080
2022-08-23T00:20:50.925Z,42.1080
2022-08-23T00:21:02.064Z,42.1020
2022-08-23T00:21:13.145Z,42.1020
2022-08-23T00:21:24.197Z,42.0960
2022-08-23T00:21:35.332Z,42.0910
2022-08-23T00:21:46.532Z,42.0960
2022-08-23T00:21:57.931Z,42.0960
2022-08-23T00:22:08.992Z,42.1200
2022-08-23T00:22:20.121Z,42.1200
2022-08-23T00:22:31.257Z,42.1330
2022-08-23T00:22:42.316Z,42.1330
2022-08-23T00:22:53.391Z,42.1390
2022-08-23T00:23:04.435Z,42.1260
2022-08-23T00:23:15.519Z,42.1260
2022-08-23T00:23:26.565Z,42.1330
2022-08-23T00:23:41.009Z,42.2830
2022-08-23T00:23:52.058Z,42.2060
2022-08-23T00:24:03.221Z,42.1690
2022-08-23T00:24:14.272Z,42.1740
2022-08-23T00:24:25.311Z,42.1510
2022-08-23T00:24:40.451Z,42.1510
2022-08-23T00:24:52.168Z,42.3550
2022-08-23T00:25:03.302Z,42.2410
2022-08-23T00:25:14.332Z,42.2060
2022-08-23T00:25:25.379Z,42.1750
2022-08-23T00:25:36.568Z,42.1630
2022-08-23T00:25:47.664Z,42.1800
2022-08-23T00:25:58.728Z,42.1800
2022-08-23T00:26:09.833Z,42.1690
2022-08-23T00:26:21.057Z,42.1800
2022-08-23T00:26:32.247Z,42.1800
2022-08-23T00:26:43.289Z,42.1750
2022-08-23T00:26:54.437Z,42.1920
2022-08-23T00:27:06.927Z,42.2580
2022-08-23T00:27:17.970Z,42.2290
2022-08-23T00:27:29.081Z,42.2000
2022-08-23T00:27:40.289Z,42.1800
2022-08-23T00:27:51.418Z,42.1920
2022-08-23T00:28:02.471Z,42.1800
2022-08-23T00:28:15.006Z,42.1740
2022-08-23T00:28:26.234Z,42.2520
2022-08-23T00:28:37.371Z,42.2170
2022-08-23T00:28:48.423Z,42.2000
2022-08-23T00:28:59.465Z,42.1860
2022-08-23T00:29:10.582Z,42.1800
2022-08-23T00:29:22.170Z,42.1920
2022-08-23T00:29:35.551Z,42.3190
2022-08-23T00:29:46.711Z,42.2290
2022-08-23T00:29:57.924Z,42.2060
2022-08-23T00:30:09.006Z,42.1800
2022-08-23T00:30:20.072Z,42.1630
2022-08-23T00:30:31.125Z,42.1690
2022-08-23T00:30:42.339Z,42.1690
2022-08-23T00:30:53.562Z,42.1800
2022-08-23T00:31:04.738Z,42.1860
2022-08-23T00:31:15.938Z,42.1800
2022-08-23T00:31:27.093Z,42.2060
2022-08-23T00:31:38.118Z,42.2060
2022-08-23T00:31:49.177Z,42.1920
2022-08-23T00:32:00.318Z,42.1920
2022-08-23T00:32:11.494Z,42.1980
2022-08-23T00:32:22.543Z,42.1980
2022-08-23T00:32:33.584Z,42.1980
2022-08-23T00:32:44.694Z,42.1980
2022-08-23T00:32:56.964Z,42.1980
2022-08-23T00:33:09.145Z,42.3070
2022-08-23T00:33:20.217Z,42.2400
2022-08-23T00:33:31.595Z,42.2290
2022-08-23T00:33:42.648Z,42.2400
2022-08-23T00:33:53.836Z,42.2170
2022-08-23T00:34:05.079Z,42.2170
2022-08-23T00:34:16.166Z,42.2070
2022-08-23T00:34:27.207Z,42.2070
2022-08-23T00:34:38.257Z,42.2010
2022-08-23T00:34:49.310Z,42.1950
2022-08-23T00:35:00.463Z,42.1950
2022-08-23T00:35:11.514Z,42.2130
2022-08-23T00:35:27.011Z,42.2070
2022-08-23T00:35:38.468Z,42.4080
2022-08-23T00:35:49.532Z,42.2890
2022-08-23T00:36:00.671Z,42.2460
2022-08-23T00:36:11.736Z,42.2400
2022-08-23T00:36:22.795Z,42.2520
2022-08-23T00:36:33.931Z,42.2400
2022-08-23T00:36:46.051Z,42.3010
2022-08-23T00:36:57.188Z,42.2520
2022-08-23T00:37:08.221Z,42.2580
2022-08-23T00:37:19.279Z,42.2460
2022-08-23T00:37:30.335Z,42.2580
2022-08-23T00:37:41.540Z,42.2520
2022-08-23T00:38:32.322Z,42.5800
2022-08-23T00:38:32.564Z,42.2640
2022-08-23T00:38:34.302Z,42.4860
2022-08-23T00:38:43.799Z,42.6350
2022-08-23T00:38:54.939Z,42.4960
2022-08-23T00:39:06.301Z,42.4180
2022-08-23T00:39:17.393Z,42.3980
2022-08-23T00:39:28.613Z,42.3580
2022-08-23T00:39:39.849Z,42.3610
2022-08-23T00:39:51.034Z,42.3790
2022-08-23T00:40:02.282Z,42.3890
2022-08-23T00:40:13.474Z,42.4100
2022-08-23T00:40:24.707Z,42.3930
2022-08-23T00:40:35.825Z,42.3850
2022-08-23T00:40:46.965Z,42.3730
2022-08-23T00:40:58.165Z,42.3730
2022-08-23T00:41:09.369Z,42.3670
2022-08-23T00:41:20.592Z,42.3790
2022-08-23T00:41:31.649Z,42.3930
2022-08-23T00:41:42.749Z,42.3670
2022-08-23T00:41:53.896Z,42.3790
2022-08-23T00:42:05.014Z,42.3950
2022-08-23T00:42:16.076Z,42.3950
2022-08-23T00:42:27.146Z,42.4120
2022-08-23T00:42:38.566Z,42.4060
2022-08-23T00:42:49.626Z,42.4430
2022-08-23T00:43:00.679Z,42.4370
2022-08-23T00:43:11.909Z,42.4430
2022-08-23T00:43:22.952Z,42.4510
2022-08-23T00:43:34.005Z,42.4400
2022-08-23T00:43:45.190Z,42.4430
2022-08-23T00:43:56.397Z,42.4490
2022-08-23T00:44:07.480Z,42.4510
2022-08-23T00:44:18.588Z,42.4460
2022-08-23T00:44:29.653Z,42.4460
2022-08-23T00:44:40.710Z,42.4550
2022-08-23T00:44:51.809Z,42.4370
2022-08-23T00:45:02.936Z,42.4160
2022-08-23T00:45:13.999Z,42.4060
2022-08-23T00:45:25.236Z,42.4120
2022-08-23T00:45:36.796Z,42.4490
2022-08-23T00:45:47.873Z,42.4240
2022-08-23T00:45:59.159Z,42.4060
2022-08-23T00:46:10.376Z,42.4120
2022-08-23T00:46:21.463Z,42.4180
2022-08-23T00:46:32.630Z,42.4310
2022-08-23T00:46:44.592Z,42.4790
2022-08-23T00:46:55.662Z,42.4670
2022-08-23T00:47:06.769Z,42.4610
2022-08-23T00:47:17.838Z,42.4670
2022-08-23T00:47:28.963Z,42.4550
2022-08-23T00:47:40.057Z,42.4490
2022-08-23T00:47:51.095Z,42.4610
2022-08-23T00:48:02.431Z,42.4650
2022-08-23T00:48:13.701Z,42.5000
2022-08-23T00:48:24.928Z,42.4940
2022-08-23T00:48:36.115Z,42.5120
2022-08-23T00:48:47.312Z,42.5060
2022-08-23T00:48:58.528Z,42.5120
2022-08-23T00:49:09.571Z,42.5000
2022-08-23T00:49:20.659Z,42.4850
2022-08-23T00:49:31.700Z,42.4670
2022-08-23T00:49:42.851Z,42.4730
2022-08-23T00:49:54.066Z,42.4450
2022-08-23T00:50:05.113Z,42.4570
2022-08-23T00:50:24.094Z,42.6540
2022-08-23T00:50:35.681Z,42.6600
2022-08-23T00:50:46.738Z,42.5330
2022-08-23T00:50:57.786Z,42.4790
2022-08-23T00:51:08.874Z,42.4450
2022-08-23T00:51:19.937Z,42.4390
2022-08-23T00:51:30.976Z,42.4220
2022-08-23T00:51:53.139Z,42.6070
2022-08-23T00:52:05.338Z,42.7010
2022-08-23T00:52:16.452Z,42.5760
2022-08-23T00:52:27.533Z,42.4960
2022-08-23T00:52:38.599Z,42.4770
2022-08-23T00:52:49.672Z,42.4430
2022-08-23T00:53:00.769Z,42.4120
2022-08-23T00:53:11.965Z,42.4270
2022-08-23T00:53:23.011Z,42.4390
2022-08-23T00:53:34.064Z,42.4100
2022-08-23T00:53:45.265Z,42.3950
2022-08-23T00:53:56.449Z,42.3950
2022-08-23T00:54:07.573Z,42.3950
2022-08-23T00:54:20.735Z,42.4750
2022-08-23T00:54:31.797Z,42.4240
2022-08-23T00:54:42.867Z,42.4030
2022-08-23T00:54:53.894Z,42.3730
2022-08-23T00:55:05.054Z,42.3730
2022-08-23T00:55:16.164Z,42.3550
2022-08-23T00:55:27.317Z,42.3610
2022-08-23T00:55:38.417Z,42.3610
2022-08-23T00:55:49.465Z,42.3550
2022-08-23T00:56:00.521Z,42.3610
2022-08-23T00:56:11.605Z,42.3610
2022-08-23T00:56:22.683Z,42.3790
2022-08-23T00:56:33.742Z,42.3730
2022-08-23T00:56:44.858Z,42.3730
2022-08-23T00:56:56.066Z,42.3790
2022-08-23T00:57:07.130Z,42.3790
2022-08-23T00:57:18.165Z,42.3910
2022-08-23T00:57:29.297Z,42.3850
2022-08-23T00:57:40.503Z,42.3850
2022-08-23T00:57:51.763Z,42.3970
2022-08-23T00:58:02.852Z,42.4140
2022-08-23T00:58:14.037Z,42.4030
2022-08-23T00:58:25.094Z,42.4140
2022-08-23T00:58:36.161Z,42.4280
2022-08-23T00:58:47.451Z,42.4340
2022-08-23T00:58:58.547Z,42.4140
2022-08-23T00:59:09.619Z,42.4200
2022-08-23T00:59:20.705Z,42.4360
2022-08-23T00:59:31.775Z,42.4470
2022-08-23T00:59:42.834Z,42.4530
2022-08-23T00:59:53.907Z,42.4530
2022-08-23T01:00:05.032Z,42.4420
2022-08-23T01:00:16.081Z,42.4530
2022-08-23T01:00:27.124Z,42.4790
2022-08-23T01:00:38.172Z,42.4940
2022-08-23T01:00:49.216Z,42.4940
2022-08-23T01:01:00.411Z,42.5040
2022-08-23T01:01:11.539Z,42.5150
2022-08-23T01:01:22.793Z,42.5270
2022-08-23T01:01:34.039Z,42.5270
2022-08-23T01:01:45.136Z,42.5230
2022-08-23T01:01:56.425Z,42.5270
2022-08-23T01:02:07.566Z,42.5270
2022-08-23T01:02:18.789Z,42.5230
2022-08-23T01:02:29.857Z,42.5450
2022-08-23T01:02:41.806Z,42.5820
2022-08-23T01:02:52.872Z,42.5940
2022-08-23T01:03:03.991Z,42.5960
2022-08-23T01:03:15.725Z,42.6150
2022-08-23T01:03:26.822Z,42.6210
2022-08-23T01:03:39.132Z,42.6210
2022-08-23T01:03:50.559Z,42.6390
2022-08-23T01:04:07.540Z,42.8380
2022-08-23T01:04:18.656Z,42.7230
2022-08-23T01:04:29.732Z,42.6560
2022-08-23T01:04:40.792Z,42.6330
2022-08-23T01:04:52.025Z,42.6270
2022-08-23T01:05:03.066Z,42.6450
2022-08-23T01:05:14.119Z,42.6450
2022-08-23T01:05:25.318Z,42.6210
2022-08-23T01:05:36.571Z,42.6330
2022-08-23T01:05:47.640Z,42.6390
2022-08-23T01:05:58.706Z,42.6500
2022-08-23T01:06:09.763Z,42.6620
2022-08-23T01:06:20.839Z,42.6560
2022-08-23T01:06:33.968Z,42.7740
2022-08-23T01:06:45.163Z,42.7230
2022-08-23T01:06:56.357Z,42.7070
2022-08-23T01:07:07.564Z,42.7010
2022-08-23T01:07:18.767Z,42.6930
2022-08-23T01:07:30.009Z,42.6930
2022-08-23T01:07:41.207Z,42.7130
2022-08-23T01:07:52.252Z,42.7070
2022-08-23T01:08:03.306Z,42.7070
2022-08-23T01:08:14.511Z,42.6900
2022-08-23T01:08:25.714Z,42.6990
2022-08-23T01:08:36.912Z,42.7170
2022-08-23T01:08:48.112Z,42.7170
2022-08-23T01:08:59.248Z,42.7170
2022-08-23T01:09:10.305Z,42.7230
2022-08-23T01:09:21.486Z,42.7170
2022-08-23T01:09:32.526Z,42.7230
2022-08-23T01:09:43.607Z,42.7170
2022-08-23T01:09:54.672Z,42.6990
2022-08-23T01:10:05.743Z,42.6890
2022-08-23T01:10:19.978Z,42.8280
2022-08-23T01:10:32.289Z,42.8300
2022-08-23T01:10:43.440Z,42.7580
2022-08-23T01:10:54.640Z,42.7170
2022-08-23T01:11:08.739Z,42.7260
2022-08-23T01:11:19.938Z,42.8500
2022-08-23T01:11:31.018Z,42.7580
2022-08-23T01:11:42.122Z,42.7350
2022-08-23T01:11:53.308Z,42.7230
2022-08-23T01:12:04.522Z,42.6990
2022-08-23T01:12:15.725Z,42.7070
2022-08-23T01:12:32.820Z,42.8440
2022-08-23T01:12:44.548Z,42.9280
2022-08-23T01:12:55.731Z,42.7800
2022-08-23T01:13:06.779Z,42.7230
2022-08-23T01:13:17.978Z,42.7010
2022-08-23T01:13:29.183Z,42.7010
2022-08-23T01:13:40.382Z,42.6950
2022-08-23T01:13:52.926Z,42.7910
2022-08-23T01:14:03.978Z,42.7260
2022-08-23T01:14:15.046Z,42.6950
2022-08-23T01:14:26.107Z,42.6780
2022-08-23T01:14:37.239Z,42.6780
2022-08-23T01:14:48.399Z,42.6840
2022-08-23T01:14:59.459Z,42.6950
2022-08-23T01:15:10.498Z,42.7190
2022-08-23T01:15:21.547Z,42.7130
2022-08-23T01:15:32.752Z,42.7130
2022-08-23T01:15:43.957Z,42.7190
2022-08-23T01:15:55.013Z,42.7260
2022-08-23T01:16:06.201Z,42.7010
2022-08-23T01:16:17.323Z,42.7130
2022-08-23T01:16:28.388Z,42.7190
2022-08-23T01:16:39.584Z,42.6950
2022-08-23T01:16:50.785Z,42.7190
2022-08-23T01:17:01.812Z,42.7500
2022-08-23T01:17:12.868Z,42.7580
2022-08-23T01:17:24.124Z,42.7660
2022-08-23T01:17:35.211Z,42.7890
2022-08-23T01:17:46.269Z,42.7830
2022-08-23T01:17:57.380Z,42.7830
2022-08-23T01:18:08.565Z,42.7830
2022-08-23T01:18:19.625Z,42.7890
2022-08-23T01:18:30.680Z,42.7830
2022-08-23T01:18:41.766Z,42.7830
2022-08-23T01:18:52.857Z,42.7830
2022-08-23T01:19:03.965Z,42.7890
2022-08-23T01:19:15.165Z,42.8010
2022-08-23T01:19:26.221Z,42.7890
2022-08-23T01:19:41.430Z,42.9940
2022-08-23T01:19:53.006Z,42.9220
2022-08-23T01:20:04.132Z,42.8910
2022-08-23T01:20:15.187Z,42.8970
2022-08-23T01:20:27.276Z,42.9240
2022-08-23T01:20:40.315Z,43.0400
2022-08-23T01:20:53.428Z,43.0670
2022-08-23T01:21:05.591Z,43.0360
2022-08-23T01:21:22.547Z,43.1630
2022-08-23T01:21:33.627Z,43.0670
2022-08-23T01:21:47.490Z,43.1140
2022-08-23T01:21:58.559Z,43.0120
2022-08-23T01:22:09.700Z,42.9670
2022-08-23T01:22:20.914Z,42.9360
2022-08-23T01:22:32.196Z,42.9440
2022-08-23T01:22:43.276Z,42.9300
2022-08-23T01:22:54.364Z,42.9360
2022-08-23T01:23:05.455Z,42.9160
2022-08-23T01:23:16.516Z,42.9220
2022-08-23T01:23:27.656Z,42.8970
2022-08-23T01:23:38.699Z,42.9030
2022-08-23T01:23:49.756Z,42.9030
2022-08-23T01:24:01.134Z,42.9100
2022-08-23T01:24:18.088Z,42.9340
2022-08-23T01:25:06.397Z,43.1470
2022-08-23T01:25:06.553Z,43.2300
2022-08-23T01:25:07.815Z,43.2850
2022-08-23T01:25:20.216Z,43.3440
2022-08-23T01:25:31.767Z,43.2180
2022-08-23T01:25:42.831Z,43.1520
2022-08-23T01:25:53.931Z,43.1060
2022-08-23T01:26:05.071Z,43.0850
2022-08-23T01:26:21.641Z,43.0910
2022-08-23T01:26:33.179Z,43.2770
2022-08-23T01:26:44.221Z,43.1910
2022-08-23T01:26:55.437Z,43.1030
2022-08-23T01:27:06.723Z,43.0790
2022-08-23T01:27:17.866Z,43.0730
2022-08-23T01:27:28.911Z,43.0420
2022-08-23T01:27:42.450Z,43.1630
2022-08-23T01:27:53.515Z,43.0730
2022-08-23T01:28:04.739Z,43.0420
2022-08-23T01:28:15.789Z,43.0420
2022-08-23T01:28:26.867Z,43.0420
2022-08-23T01:28:38.141Z,43.0400
2022-08-23T01:28:49.267Z,43.0550
2022-08-23T01:29:00.359Z,43.0550
2022-08-23T01:29:11.402Z,43.0670
2022-08-23T01:29:22.528Z,43.0610
2022-08-23T01:29:33.760Z,43.0730
2022-08-23T01:29:44.938Z,43.0790
2022-08-23T01:29:55.999Z,43.0790
2022-08-23T01:30:07.327Z,43.0670
2022-08-23T01:30:18.552Z,43.0610
2022-08-23T01:30:29.618Z,43.0630
2022-08-23T01:30:40.684Z,43.0400
2022-08-23T01:30:51.828Z,43.0400
2022-08-23T01:31:03.037Z,43.0520
2022-08-23T01:31:17.810Z,43.2530
2022-08-23T01:31:28.949Z,43.1520
2022-08-23T01:31:40.018Z,43.1200
2022-08-23T01:31:51.149Z,43.1140
2022-08-23T01:32:02.366Z,43.0730
2022-08-23T01:32:13.579Z,43.0750
2022-08-23T01:32:24.647Z,43.0630
2022-08-23T01:32:35.712Z,43.0520
2022-08-23T01:32:46.759Z,43.0400
2022-08-23T01:32:57.822Z,43.0300
2022-08-23T01:33:09.110Z,42.9950
2022-08-23T01:33:20.160Z,43.0120
2022-08-23T01:33:31.358Z,43.0120
2022-08-23T01:33:42.406Z,43.0180
2022-08-23T01:33:53.470Z,43.0060
2022-08-23T01:34:04.638Z,43.0240
2022-08-23T01:34:15.706Z,43.0240
2022-08-23T01:34:26.768Z,43.0120
2022-08-23T01:34:37.900Z,43.0240
2022-08-23T01:34:54.866Z,43.2920
2022-08-23T01:35:05.996Z,43.1930
2022-08-23T01:35:17.207Z,43.1400
2022-08-23T01:35:28.427Z,43.1080
2022-08-23T01:35:39.547Z,43.1080
2022-08-23T01:35:50.616Z,43.1000
2022-08-23T01:36:01.671Z,43.0870
2022-08-23T01:36:15.247Z,43.2020
2022-08-23T01:36:26.465Z,43.1360
2022-08-23T01:36:37.513Z,43.1240
2022-08-23T01:36:48.652Z,43.1000
2022-08-23T01:36:59.703Z,43.0870
2022-08-23T01:37:10.815Z,43.0610
2022-08-23T01:37:22.014Z,43.0790
2022-08-23T01:37:33.212Z,43.0730
2022-08-23T01:37:44.412Z,43.0730
2022-08-23T01:37:55.448Z,43.0730
2022-08-23T01:38:06.625Z,43.0730
2022-08-23T01:38:17.761Z,43.0730
2022-08-23T01:38:30.392Z,43.0850
2022-08-23T01:38:43.921Z,43.2750
2022-08-23T01:38:54.984Z,43.1790
2022-08-23T01:39:06.119Z,43.1360
2022-08-23T01:39:17.320Z,43.1470
2022-08-23T01:39:28.372Z,43.1470
2022-08-23T01:39:39.494Z,43.1540
2022-08-23T01:39:50.655Z,43.1420
2022-08-23T01:40:01.800Z,43.1590
2022-08-23T01:40:12.898Z,43.1590
2022-08-23T01:40:24.188Z,43.1630
2022-08-23T01:40:35.318Z,43.1870
2022-08-23T01:40:46.399Z,43.1870
2022-08-23T01:40:57.495Z,43.1870
2022-08-23T01:41:08.708Z,43.1990
2022-08-23T01:41:19.928Z,43.2180
2022-08-23T01:41:31.160Z,43.2060
2022-08-23T01:41:42.358Z,43.2120
2022-08-23T01:41:53.492Z,43.2050
2022-08-23T01:42:07.688Z,43.1870
2022-08-23T01:42:18.978Z,43.3500
2022-08-23T01:42:30.141Z,43.2600
2022-08-23T01:42:41.192Z,43.2360
2022-08-23T01:42:52.397Z,43.1990
2022-08-23T01:43:03.435Z,43.1870
2022-08-23T01:43:14.640Z,43.1810
2022-08-23T01:43:25.761Z,43.1930
2022-08-23T01:43:37.054Z,43.1810
2022-08-23T01:43:48.121Z,43.1930
2022-08-23T01:43:59.178Z,43.1650
2022-08-23T01:44:10.250Z,43.1730
2022-08-23T01:44:21.311Z,43.1900
2022-08-23T01:44:32.353Z,43.1930
2022-08-23T01:44:43.404Z,43.1870
2022-08-23T01:44:54.592Z,43.1930
2022-08-23T01:45:05.795Z,43.2180
2022-08-23T01:45:16.845Z,43.2360
2022-08-23T01:45:27.961Z,43.2180
2022-08-23T01:45:39.765Z,43.2180
2022-08-23T01:45:51.072Z,43.2650
2022-08-23T01:46:02.110Z,43.2530
2022-08-23T01:46:13.176Z,43.2300
2022-08-23T01:46:24.307Z,43.2360
2022-08-23T01:46:35.514Z,43.2480
2022-08-23T01:46:46.714Z,43.2650
2022-08-23T01:46:57.863Z,43.2710
2022-08-23T01:47:09.142Z,43.3140
2022-08-23T01:47:20.222Z,43.2910
2022-08-23T01:47:31.383Z,43.3020
2022-08-23T01:47:42.585Z,43.3140
2022-08-23T01:47:53.650Z,43.3140
2022-08-23T01:48:04.721Z,43.3140
2022-08-23T01:48:15.863Z,43.2970
2022-08-23T01:48:27.359Z,43.2970
2022-08-23T01:48:38.567Z,43.3080
2022-08-23T01:48:49.626Z,43.3140
2022-08-23T01:49:00.713Z,43.3080
2022-08-23T01:49:11.926Z,43.3020
2022-08-23T01:49:23.108Z,43.3080
2022-08-23T01:49:34.306Z,43.3380
2022-08-23T01:49:45.506Z,43.3670
2022-08-23T01:49:56.553Z,43.3590
2022-08-23T01:50:07.589Z,43.3590
2022-08-23T01:50:18.802Z,43.3360
2022-08-23T01:50:29.961Z,43.3320
2022-08-23T01:50:41.011Z,43.3440
2022-08-23T01:50:52.140Z,43.3380
2022-08-23T01:51:03.182Z,43.3320
2022-08-23T01:51:14.256Z,43.3200
2022-08-23T01:51:25.332Z,43.3200
2022-08-23T01:51:36.969Z,43.3260
2022-08-23T01:51:48.058Z,43.3960
2022-08-23T01:51:59.133Z,43.4020
2022-08-23T01:52:10.220Z,43.3810
2022-08-23T01:52:21.427Z,43.3930
2022-08-23T01:52:32.619Z,43.3930
2022-08-23T01:52:47.213Z,43.4180
2022-08-23T01:52:58.737Z,43.6140
2022-08-23T01:53:09.839Z,43.5360
2022-08-23T01:53:20.977Z,43.4870
2022-08-23T01:53:32.111Z,43.4690
2022-08-23T01:53:43.308Z,43.4750
2022-08-23T01:53:54.509Z,43.4870
2022-08-23T01:54:09.256Z,43.6760
2022-08-23T01:54:20.407Z,43.5420
2022-08-23T01:54:31.475Z,43.5050
2022-08-23T01:54:42.534Z,43.4630
2022-08-23T01:54:53.606Z,43.4460
2022-08-23T01:55:04.658Z,43.4300
2022-08-23T01:55:15.716Z,43.4240
2022-08-23T01:55:26.959Z,43.4120
2022-08-23T01:55:38.204Z,43.3990
2022-08-23T01:55:49.276Z,43.4080
2022-08-23T01:56:00.367Z,43.4020
2022-08-23T01:56:11.434Z,43.3910
2022-08-23T01:56:38.716Z,43.3850
2022-08-23T01:56:39.623Z,43.6080
2022-08-23T01:56:50.668Z,43.5200
2022-08-23T01:57:01.716Z,43.4360
2022-08-23T01:57:12.938Z,43.4020
2022-08-23T01:57:24.069Z,43.4020
2022-08-23T01:57:35.132Z,43.3960
2022-08-23T01:57:48.325Z,43.3750
2022-08-23T01:58:00.791Z,43.5080
2022-08-23T01:58:11.883Z,43.4160
2022-08-23T01:58:23.128Z,43.3750
2022-08-23T01:58:34.199Z,43.3750
2022-08-23T01:58:45.245Z,43.3690
2022-08-23T01:58:56.390Z,43.3570
2022-08-23T01:59:07.436Z,43.3500
2022-08-23T01:59:18.488Z,43.3570
2022-08-23T01:59:29.530Z,43.3440
2022-08-23T01:59:40.731Z,43.3500
2022-08-23T01:59:51.790Z,43.3590
2022-08-23T02:00:02.859Z,43.3730
2022-08-23T02:00:14.011Z,43.3850
2022-08-23T02:00:25.211Z,43.3960
2022-08-23T02:00:36.415Z,43.3870
2022-08-23T02:00:47.558Z,43.3990
2022-08-23T02:00:58.683Z,43.3960
2022-08-23T02:01:09.733Z,43.3910
2022-08-23T02:01:20.824Z,43.3960
2022-08-23T02:01:34.208Z,43.4970
2022-08-23T02:01:45.298Z,43.4480
2022-08-23T02:01:56.535Z,43.4300
2022-08-23T02:02:07.709Z,43.4240
2022-08-23T02:02:18.855Z,43.3930
2022-08-23T02:02:29.982Z,43.3960
2022-08-23T02:02:41.042Z,43.3850
2022-08-23T02:02:52.206Z,43.3960
2022-08-23T02:03:03.254Z,43.3960
2022-08-23T02:03:14.416Z,43.3670
2022-08-23T02:03:25.613Z,43.3670
2022-08-23T02:03:36.821Z,43.3850
2022-08-23T02:03:47.950Z,43.3870
2022-08-23T02:04:05.444Z,43.6280
2022-08-23T02:04:16.812Z,43.5650
2022-08-23T02:04:27.960Z,43.4580
2022-08-23T02:04:38.999Z,43.4180
2022-08-23T02:04:50.133Z,43.3990
2022-08-23T02:05:01.230Z,43.3870
2022-08-23T02:05:12.290Z,43.3810
2022-08-23T02:05:23.437Z,43.3570
2022-08-23T02:05:34.637Z,43.3750
2022-08-23T02:05:45.988Z,43.3850
2022-08-23T02:05:57.157Z,43.4030
2022-08-23T02:06:08.217Z,43.3850
2022-08-23T02:06:19.446Z,43.3480
2022-08-23T02:06:30.506Z,43.3520
2022-08-23T02:06:41.559Z,43.3480
2022-08-23T02:06:52.685Z,43.3360
2022-08-23T02:07:03.726Z,43.3670
2022-08-23T02:07:14.765Z,43.3480
2022-08-23T02:07:26.002Z,43.3670
2022-08-23T02:07:37.061Z,43.3790
2022-08-23T02:07:49.710Z,43.4320
2022-08-23T02:08:00.963Z,43.3730
2022-08-23T02:08:12.218Z,43.3600
2022-08-23T02:08:23.272Z,43.3300
2022-08-23T02:08:34.412Z,43.3140
2022-08-23T02:08:45.588Z,43.3280
2022-08-23T02:08:56.735Z,43.3020
2022-08-23T02:09:17.561Z,43.3010
2022-08-23T02:09:25.682Z,43.5180
2022-08-23T02:09:36.938Z,43.4640
2022-08-23T02:09:48.447Z,43.3970
2022-08-23T02:09:59.592Z,43.3540
2022-08-23T02:10:10.680Z,43.3240
2022-08-23T02:10:21.733Z,43.2970
2022-08-23T02:10:32.801Z,43.2850
2022-08-23T02:10:43.851Z,43.2910
2022-08-23T02:10:54.984Z,43.2670
2022-08-23T02:11:06.079Z,43.2730
2022-08-23T02:11:17.139Z,43.2670
2022-08-23T02:11:28.274Z,43.2670
2022-08-23T02:11:39.328Z,43.2910
2022-08-23T02:11:50.425Z,43.2850
2022-08-23T02:12:01.714Z,43.2730
2022-08-23T02:12:12.892Z,43.2890
2022-08-23T02:12:24.139Z,43.2950
2022-08-23T02:12:35.302Z,43.3020
2022-08-23T02:12:46.360Z,43.2910
2022-08-23T02:12:57.531Z,43.2890
2022-08-23T02:13:08.620Z,43.3010
2022-08-23T02:13:19.713Z,43.3120
2022-08-23T02:13:30.843Z,43.3070
2022-08-23T02:13:42.046Z,43.3480
2022-08-23T02:13:53.121Z,43.3640
2022-08-23T02:14:04.236Z,43.3870
2022-08-23T02:14:15.303Z,43.4130
2022-08-23T02:14:26.451Z,43.3870
2022-08-23T02:14:37.652Z,43.4130
2022-08-23T02:14:52.087Z,43.5750
2022-08-23T02:15:03.142Z,43.4660
2022-08-23T02:15:14.231Z,43.4070
2022-08-23T02:15:25.432Z,43.4090
2022-08-23T02:15:36.640Z,43.3850
2022-08-23T02:15:47.760Z,43.3790
2022-08-23T02:15:59.815Z,43.4320
2022-08-23T02:16:11.011Z,43.3910
2022-08-23T02:16:26.110Z,43.5780
2022-08-23T02:16:40.080Z,43.5870
2022-08-23T02:16:59.934Z,43.5440
2022-08-23T02:17:09.820Z,43.6660
2022-08-23T02:17:21.005Z,43.5750
2022-08-23T02:17:32.060Z,43.4910
2022-08-23T02:17:43.121Z,43.4460
2022-08-23T02:17:54.250Z,43.4320
2022-08-23T02:18:05.297Z,43.4080
2022-08-23T02:18:16.386Z,43.4150
2022-08-23T02:18:28.015Z,43.4520
2022-08-23T02:18:39.072Z,43.4200
2022-08-23T02:18:50.238Z,43.4260
2022-08-23T02:19:01.283Z,43.4200
2022-08-23T02:19:12.338Z,43.3790
2022-08-23T02:19:23.492Z,43.3930